createdAt,value
2019-05-14T00:04:54.678Z,1.73
2019-05-14T00:10:01.272Z,1.90
2019-05-14T00:15:05.626Z,1.50
2019-05-14T00:20:12.481Z,1.33
2019-05-14T00:25:18.016Z,1.27
2019-05-14T00:30:22.086Z,2.00
2019-05-14T00:35:25.628Z,2.13
2019-05-14T00:40:31.233Z,1.90
2019-05-14T00:45:34.228Z,2.10
2019-05-14T00:50:37.771Z,2.40
2019-05-14T00:55:42.076Z,2.07
2019-05-14T01:00:47.251Z,1.87
2019-05-14T01:05:52.266Z,1.93
2019-05-14T01:10:55.899Z,2.33
2019-05-14T01:16:01.316Z,2.20
2019-05-14T01:21:04.488Z,1.97
2019-05-14T01:26:07.903Z,1.60
2019-05-14T01:31:12.421Z,2.47
2019-05-14T01:36:16.654Z,2.77
2019-05-14T01:41:22.204Z,1.90
2019-05-14T01:46:25.213Z,2.47
2019-05-14T01:51:28.734Z,2.33
2019-05-14T01:56:32.164Z,1.70
2019-05-14T02:01:35.570Z,2.30
2019-05-14T02:06:41.114Z,1.60
2019-05-14T02:11:44.115Z,2.47
2019-05-14T02:16:47.531Z,2.17
2019-05-14T02:21:51.387Z,2.13
2019-05-14T02:26:54.949Z,2.60
2019-05-14T02:31:59.010Z,2.20
2019-05-14T02:37:02.533Z,2.60
2019-05-14T02:42:08.996Z,2.10
2019-05-14T02:47:11.096Z,2.10
2019-05-14T02:52:14.544Z,2.93
2019-05-14T02:57:19.948Z,2.73
2019-05-14T03:02:23.324Z,2.07
2019-05-14T03:07:29.608Z,1.67
2019-05-14T03:12:32.105Z,2.30
2019-05-14T03:17:35.549Z,3.30
2019-05-14T03:22:53.651Z,3.20
2019-05-14T03:27:44.214Z,3.37
2019-05-14T03:32:52.874Z,3.00
2019-05-14T03:37:53.001Z,2.60
2019-05-14T03:42:59.596Z,3.23
2019-05-14T03:48:01.629Z,4.97
2019-05-14T03:53:05.117Z,4.47
2019-05-14T03:58:09.897Z,4.57
2019-05-14T04:03:13.728Z,3.83
2019-05-14T04:08:21.475Z,4.37
2019-05-14T04:13:24.998Z,3.73
2019-05-14T04:18:30.176Z,3.20
2019-05-14T04:23:39.575Z,3.50
2019-05-14T04:28:45.843Z,3.13
2019-05-14T04:33:50.775Z,3.77
2019-05-14T04:38:55.367Z,3.83
2019-05-14T04:43:59.557Z,4.00
2019-05-14T04:49:03.097Z,5.17
2019-05-14T04:54:09.420Z,6.90
2019-05-14T04:59:11.943Z,6.77
2019-05-14T05:04:15.331Z,4.97
2019-05-14T05:09:20.039Z,4.53
2019-05-14T05:14:24.047Z,6.27
2019-05-14T05:19:29.029Z,8.00
2019-05-14T05:24:32.651Z,6.97
2019-05-14T05:29:36.070Z,4.83
2019-05-14T05:34:39.503Z,5.37
2019-05-14T05:39:42.910Z,4.80
2019-05-14T05:44:48.338Z,4.83
2019-05-14T05:49:51.491Z,4.93
2019-05-14T05:54:54.960Z,5.43
2019-05-14T05:59:59.089Z,5.43
2019-05-14T06:05:02.797Z,5.53
2019-05-14T06:10:08.439Z,6.03
2019-05-14T06:15:14.437Z,4.87
2019-05-14T06:20:18.940Z,6.10
2019-05-14T06:25:22.469Z,4.90
2019-05-14T06:30:39.547Z,5.67
2019-05-14T06:35:42.739Z,6.70
2019-05-14T06:40:48.792Z,5.17
2019-05-14T06:45:51.461Z,6.40
2019-05-14T06:50:54.859Z,5.30
2019-05-14T06:55:58.748Z,6.40
2019-05-14T07:01:02.475Z,5.17
2019-05-14T07:06:05.905Z,6.27
2019-05-14T07:11:09.341Z,5.40
2019-05-14T07:16:12.765Z,5.73
2019-05-14T07:21:18.517Z,5.90
2019-05-14T07:26:21.417Z,6.60
2019-05-14T07:31:24.837Z,6.10
2019-05-14T07:36:29.279Z,5.60
2019-05-14T07:41:32.876Z,6.23
2019-05-14T07:46:38.824Z,6.43
2019-05-14T07:51:41.467Z,5.07
2019-05-14T07:56:44.894Z,5.07
2019-05-14T08:01:49.090Z,5.17
2019-05-14T08:06:52.637Z,5.47
2019-05-14T08:11:58.555Z,5.07
2019-05-14T08:17:01.203Z,5.27
2019-05-14T08:22:04.854Z,5.30
2019-05-14T08:27:08.662Z,5.07
2019-05-14T08:32:12.228Z,4.40
2019-05-14T08:37:15.663Z,4.80
2019-05-14T08:42:19.075Z,4.30
2019-05-14T08:47:22.519Z,5.10
2019-05-14T08:52:28.584Z,4.27
2019-05-14T08:57:31.187Z,3.90
2019-05-14T09:02:34.589Z,3.27
2019-05-14T09:07:38.490Z,3.90
2019-05-14T09:12:42.020Z,2.70
2019-05-14T09:17:45.443Z,2.70
2019-05-14T09:22:49.199Z,3.70
2019-05-14T09:27:52.670Z,2.93
2019-05-14T09:32:56.073Z,2.70
2019-05-14T09:37:59.526Z,2.50
2019-05-14T09:43:02.948Z,1.90
2019-05-14T09:48:08.701Z,1.87
2019-05-14T09:53:11.539Z,2.90
2019-05-14T09:58:15.019Z,3.23
2019-05-14T10:03:19.276Z,2.40
2019-05-14T10:08:22.719Z,2.77
2019-05-14T10:13:28.066Z,1.93
2019-05-14T10:18:31.267Z,2.00
2019-05-14T10:23:34.774Z,2.00
2019-05-14T10:28:41.182Z,1.97
2019-05-14T10:33:43.385Z,1.90
2019-05-14T10:38:46.847Z,2.10
2019-05-14T10:43:50.294Z,2.73
2019-05-14T10:48:53.724Z,2.23
2019-05-14T10:53:59.538Z,2.33
2019-05-14T10:59:02.320Z,2.80
2019-05-14T11:04:05.730Z,2.53
2019-05-14T11:09:09.324Z,2.07
2019-05-14T11:14:12.729Z,2.33
2019-05-14T11:19:18.651Z,2.20
2019-05-14T11:24:21.309Z,2.03
2019-05-14T11:29:24.734Z,2.30
2019-05-14T11:34:28.858Z,2.40
2019-05-14T11:39:32.351Z,2.50
2019-05-14T11:44:38.016Z,1.97
2019-05-14T11:49:40.943Z,2.43
2019-05-14T11:54:44.386Z,2.00
2019-05-14T11:59:48.139Z,1.57
2019-05-14T12:04:51.559Z,2.20
2019-05-14T12:09:55.020Z,1.70
2019-05-14T12:14:58.449Z,2.03
2019-05-14T12:20:02.209Z,1.80
2019-05-14T12:25:08.180Z,6.83
2019-05-14T12:30:13.433Z,1.63
2019-05-14T12:35:19.445Z,1.70
2019-05-14T12:40:22.049Z,1.60
2019-05-14T12:45:25.464Z,1.93
2019-05-14T12:50:28.884Z,1.53
2019-05-14T12:55:32.358Z,2.00
2019-05-14T13:00:35.770Z,1.57
2019-05-14T13:05:39.181Z,1.20
2019-05-14T13:10:42.611Z,1.40
2019-05-14T13:15:48.278Z,1.73
2019-05-14T13:20:51.182Z,1.10
2019-05-14T13:25:54.730Z,1.17
2019-05-14T13:30:59.639Z,1.23
2019-05-14T13:36:03.397Z,6.43
2019-05-14T13:41:08.631Z,3.13
2019-05-14T13:46:14.964Z,2.67
2019-05-14T13:51:19.483Z,1.07
2019-05-14T13:56:22.360Z,1.43
2019-05-14T14:01:25.790Z,1.47
2019-05-14T14:06:29.314Z,1.00
2019-05-14T14:11:32.730Z,1.23
2019-05-14T14:16:36.161Z,1.00
2019-05-14T14:21:39.908Z,1.60
2019-05-14T14:26:43.466Z,1.20
2019-05-14T14:31:48.553Z,1.40
2019-05-14T14:36:55.099Z,1.90
2019-05-14T14:41:58.485Z,1.23
2019-05-14T14:47:02.159Z,1.10
2019-05-14T14:52:05.568Z,1.10
2019-05-14T14:57:09.003Z,1.20
2019-05-14T15:02:12.439Z,0.93
2019-05-14T15:07:15.859Z,1.10
2019-05-14T15:12:20.026Z,1.37
2019-05-14T15:17:23.603Z,0.90
2019-05-14T15:22:31.040Z,12.57
2019-05-14T15:27:32.283Z,5.50
2019-05-14T15:32:35.702Z,1.20
2019-05-14T15:37:42.696Z,1.13
2019-05-14T15:42:44.338Z,1.37
2019-05-14T15:47:48.440Z,0.93
2019-05-14T15:52:52.253Z,1.20
2019-05-14T15:57:55.686Z,1.23
2019-05-14T16:03:00.284Z,1.30
2019-05-14T16:08:03.925Z,1.20
2019-05-14T16:13:08.785Z,0.83
2019-05-14T16:18:18.549Z,1.00
2019-05-14T16:23:18.781Z,1.13
2019-05-14T16:28:22.319Z,3.20
2019-05-14T16:33:28.836Z,1.43
2019-05-14T16:38:30.871Z,0.83
2019-05-14T16:43:34.303Z,1.40
2019-05-14T16:48:39.625Z,1.30
2019-05-14T16:53:43.033Z,1.33
2019-05-14T16:58:46.474Z,1.77
2019-05-14T17:03:49.900Z,1.30
2019-05-14T17:08:53.313Z,1.17
2019-05-14T17:13:57.978Z,1.47
2019-05-14T17:19:01.827Z,1.50
2019-05-14T17:24:05.246Z,0.90
2019-05-14T17:29:08.883Z,1.00
2019-05-14T17:34:12.478Z,1.37
2019-05-14T17:39:15.934Z,1.30
2019-05-14T17:44:19.694Z,1.83
2019-05-14T17:49:23.222Z,1.60
2019-05-14T17:54:28.400Z,1.33
2019-05-14T17:59:33.637Z,1.70
2019-05-14T18:04:37.364Z,2.17
2019-05-14T18:09:41.584Z,8.03
2019-05-14T18:14:45.005Z,7.77
2019-05-14T18:19:48.558Z,3.50
2019-05-14T18:24:51.915Z,1.77
2019-05-14T18:29:55.338Z,2.53
2019-05-14T18:34:58.770Z,4.30
2019-05-14T18:40:02.243Z,2.50
2019-05-14T18:45:08.651Z,2.30
2019-05-14T18:50:12.796Z,1.20
2019-05-14T18:55:18.614Z,3.07
2019-05-14T19:00:21.565Z,3.33
2019-05-14T19:05:25.030Z,1.67
2019-05-14T19:10:28.537Z,0.97
2019-05-14T19:15:31.988Z,3.13
2019-05-14T19:20:35.414Z,1.43
2019-05-14T19:25:39.045Z,5.67
2019-05-14T19:30:43.013Z,2.70
2019-05-14T19:35:48.416Z,2.13
2019-05-14T19:40:51.576Z,1.83
2019-05-14T19:45:55.006Z,1.87
2019-05-14T19:50:58.695Z,1.70
2019-05-14T19:56:02.198Z,1.53
2019-05-14T20:01:05.992Z,1.70
2019-05-14T20:06:09.415Z,1.77
2019-05-14T20:11:12.842Z,2.03
2019-05-14T20:16:18.501Z,1.50
2019-05-14T20:21:22.244Z,1.53
2019-05-14T20:26:28.040Z,1.40
2019-05-14T20:31:30.874Z,1.23
2019-05-14T20:36:34.302Z,1.53
2019-05-14T20:41:38.503Z,1.60
2019-05-14T20:46:42.200Z,2.00
2019-05-14T20:51:45.611Z,2.13
2019-05-14T20:56:49.373Z,1.50
2019-05-14T21:01:52.837Z,1.30
2019-05-14T21:06:58.601Z,1.57
2019-05-14T21:12:01.474Z,1.50
2019-05-14T21:17:04.986Z,1.50
2019-05-14T21:22:08.568Z,1.90
2019-05-14T21:27:11.937Z,1.67
2019-05-14T21:32:15.386Z,2.30
2019-05-14T21:37:19.025Z,1.80
2019-05-14T21:42:22.479Z,2.03
2019-05-14T21:47:25.929Z,1.63
2019-05-14T21:52:29.389Z,1.83
2019-05-14T21:57:32.837Z,1.70
2019-05-14T22:02:38.396Z,2.23
2019-05-14T22:07:41.884Z,2.03
2019-05-14T22:12:45.350Z,1.90
2019-05-14T22:17:49.293Z,1.50
2019-05-14T22:22:52.825Z,1.80
2019-05-14T22:28:10.839Z,2.00
2019-05-14T22:33:01.431Z,2.37
2019-05-14T22:38:04.862Z,1.93
2019-05-14T22:43:09.272Z,1.93
2019-05-14T22:48:12.901Z,1.83
2019-05-14T22:53:16.351Z,1.77
2019-05-14T22:58:25.611Z,1.80
2019-05-14T23:03:24.937Z,2.27
2019-05-14T23:08:28.373Z,2.07
2019-05-14T23:13:31.801Z,2.10
2019-05-14T23:18:35.259Z,1.80
2019-05-14T23:23:39.399Z,2.63
2019-05-14T23:28:45.989Z,2.07
2019-05-14T23:33:49.032Z,1.67
2019-05-14T23:38:53.493Z,1.60
2019-05-14T23:43:56.935Z,1.90
2019-05-14T23:49:00.393Z,1.50
2019-05-14T23:54:03.911Z,1.50
2019-05-14T23:59:09.330Z,1.73
